sensor_id;sensor_type;location;lat;lon;timestamp;pressure;altitude;pressure_sealevel;temperature;humidity
6899;BME280;3488;42.616;23.350;2023-09-30T00:00:42;63751.94;;;16.99;60.75
6899;BME280;3488;42.616;23.350;2023-09-30T00:03:10;63756.06;;;17.01;60.67
6899;BME280;3488;42.616;23.350;2023-09-30T00:05:39;63763.81;;;17.03;59.41
6899;BME280;3488;42.616;23.350;2023-09-30T00:08:07;63764.34;;;17.04;60.15
6899;BME280;3488;42.616;23.350;2023-09-30T00:10:35;63759.19;;;17.04;59.62
6899;BME280;3488;42.616;23.350;2023-09-30T00:13:04;63763.88;;;17.08;59.12
6899;BME280;3488;42.616;23.350;2023-09-30T00:15:32;63764.91;;;17.09;59.74
6899;BME280;3488;42.616;23.350;2023-09-30T00:18:01;63768.50;;;17.08;59.22
6899;BME280;3488;42.616;23.350;2023-09-30T00:20:28;63769.06;;;17.11;59.63
6899;BME280;3488;42.616;23.350;2023-09-30T00:22:56;63768.53;;;17.10;60.75
6899;BME280;3488;42.616;23.350;2023-09-30T00:25:24;63768.00;;;17.10;59.65
6899;BME280;3488;42.616;23.350;2023-09-30T00:27:54;63774.75;;;17.14;59.36
6899;BME280;3488;42.616;23.350;2023-09-30T00:30:22;63775.78;;;17.15;60.63
6899;BME280;3488;42.616;23.350;2023-09-30T00:32:50;63767.00;;;17.11;61.26
6899;BME280;3488;42.616;23.350;2023-09-30T00:35:17;63765.47;;;17.12;60.88
6899;BME280;3488;42.616;23.350;2023-09-30T00:37:44;63774.75;;;17.14;60.52
6899;BME280;3488;42.616;23.350;2023-09-30T00:40:11;63763.81;;;17.03;61.82
6899;BME280;3488;42.616;23.350;2023-09-30T00:42:39;63756.56;;;16.99;61.45
6899;BME280;3488;42.616;23.350;2023-09-30T00:45:08;63758.59;;;16.98;62.09
6899;BME280;3488;42.616;23.350;2023-09-30T00:47:37;63762.78;;;17.02;61.66
6899;BME280;3488;42.616;23.350;2023-09-30T00:50:06;63761.22;;;17.03;60.68
6899;BME280;3488;42.616;23.350;2023-09-30T00:52:37;63764.88;;;17.07;59.63
6899;BME280;3488;42.616;23.350;2023-09-30T00:55:07;63776.88;;;17.18;59.65
6899;BME280;3488;42.616;23.350;2023-09-30T00:57:37;63771.16;;;17.15;59.89
6899;BME280;3488;42.616;23.350;2023-09-30T01:00:07;63773.28;;;17.20;60.33
6899;BME280;3488;42.616;23.350;2023-09-30T01:02:41;63771.19;;;17.18;59.77
6899;BME280;3488;42.616;23.350;2023-09-30T01:05:10;63777.94;;;17.22;58.58
6899;BME280;3488;42.616;23.350;2023-09-30T01:07:37;63780.50;;;17.22;58.61
6899;BME280;3488;42.616;23.350;2023-09-30T01:10:06;63779.00;;;17.25;58.58
6899;BME280;3488;42.616;23.350;2023-09-30T01:12:33;63780.00;;;17.24;59.76
6899;BME280;3488;42.616;23.350;2023-09-30T01:15:04;63775.31;;;17.19;59.62
6899;BME280;3488;42.616;23.350;2023-09-30T01:17:32;63784.13;;;17.23;60.58
6899;BME280;3488;42.616;23.350;2023-09-30T01:20:01;63787.75;;;17.26;60.64
6899;BME280;3488;42.616;23.350;2023-09-30T01:22:32;63783.69;;;17.30;60.61
6899;BME280;3488;42.616;23.350;2023-09-30T01:25:00;63788.81;;;17.30;60.80
6899;BME280;3488;42.616;23.350;2023-09-30T01:27:27;63782.09;;;17.26;60.41
6899;BME280;3488;42.616;23.350;2023-09-30T01:29:55;63783.09;;;17.24;62.67
6899;BME280;3488;42.616;23.350;2023-09-30T01:32:23;63774.28;;;17.18;60.01
6899;BME280;3488;42.616;23.350;2023-09-30T01:34:51;63782.56;;;17.24;61.52
6899;BME280;3488;42.616;23.350;2023-09-30T01:37:19;63787.22;;;17.26;61.53
6899;BME280;3488;42.616;23.350;2023-09-30T01:39:48;63779.50;;;17.26;61.86
6899;BME280;3488;42.616;23.350;2023-09-30T01:42:16;63785.72;;;17.27;62.56
6899;BME280;3488;42.616;23.350;2023-09-30T01:44:43;63783.09;;;17.24;63.12
6899;BME280;3488;42.616;23.350;2023-09-30T01:47:10;63786.19;;;17.25;61.05
6899;BME280;3488;42.616;23.350;2023-09-30T01:49:38;63781.50;;;17.20;59.93
6899;BME280;3488;42.616;23.350;2023-09-30T01:52:05;63781.53;;;17.23;61.95
6899;BME280;3488;42.616;23.350;2023-09-30T01:54:32;63779.94;;;17.19;62.77
6899;BME280;3488;42.616;23.350;2023-09-30T01:57:01;63769.09;;;17.16;63.58
6899;BME280;3488;42.616;23.350;2023-09-30T01:59:28;63766.50;;;17.13;62.93
6899;BME280;3488;42.616;23.350;2023-09-30T02:01:58;63764.38;;;17.09;61.57
6899;BME280;3488;42.616;23.350;2023-09-30T02:04:29;63772.66;;;17.12;60.74
6899;BME280;3488;42.616;23.350;2023-09-30T02:07:00;63764.38;;;17.09;61.17
6899;BME280;3488;42.616;23.350;2023-09-30T02:09:27;63760.78;;;17.08;61.62
6899;BME280;3488;42.616;23.350;2023-09-30T02:11:54;63759.19;;;17.04;60.51
6899;BME280;3488;42.616;23.350;2023-09-30T02:14:23;63758.16;;;17.03;60.05
6899;BME280;3488;42.616;23.350;2023-09-30T02:16:50;63759.19;;;17.04;60.78
6899;BME280;3488;42.616;23.350;2023-09-30T02:19:17;63761.22;;;17.03;60.90
6899;BME280;3488;42.616;23.350;2023-09-30T02:21:45;63757.63;;;17.02;60.95
6899;BME280;3488;42.616;23.350;2023-09-30T02:24:12;63759.69;;;17.02;61.26
6899;BME280;3488;42.616;23.350;2023-09-30T02:26:39;63751.38;;;16.96;61.54
6899;BME280;3488;42.616;23.350;2023-09-30T02:29:05;63754.47;;;16.94;61.47
6899;BME280;3488;42.616;23.350;2023-09-30T02:31:35;63752.44;;;16.97;61.13
6899;BME280;3488;42.616;23.350;2023-09-30T02:34:02;63748.25;;;16.93;59.30
6899;BME280;3488;42.616;23.350;2023-09-30T02:36:29;63743.53;;;16.86;60.74
6899;BME280;3488;42.616;23.350;2023-09-30T02:38:56;63738.38;;;16.84;60.30
6899;BME280;3488;42.616;23.350;2023-09-30T02:41:23;63743.03;;;16.86;61.59
6899;BME280;3488;42.616;23.350;2023-09-30T02:43:50;63738.38;;;16.84;61.99
6899;BME280;3488;42.616;23.350;2023-09-30T02:46:17;63734.22;;;16.80;62.15
6899;BME280;3488;42.616;23.350;2023-09-30T02:48:49;63722.25;;;16.68;62.46
6899;BME280;3488;42.616;23.350;2023-09-30T02:51:17;63715.50;;;16.62;63.68
6899;BME280;3488;42.616;23.350;2023-09-30T02:53:47;63707.13;;;16.51;64.96
6899;BME280;3488;42.616;23.350;2023-09-30T02:56:21;63697.22;;;16.42;64.78
6899;BME280;3488;42.616;23.350;2023-09-30T02:58:50;63689.44;;;16.37;63.51
6899;BME280;3488;42.616;23.350;2023-09-30T03:01:17;63683.78;;;16.34;63.99
6899;BME280;3488;42.616;23.350;2023-09-30T03:03:45;63681.09;;;16.26;65.49
6899;BME280;3488;42.616;23.350;2023-09-30T03:06:13;63667.66;;;16.18;66.53
6899;BME280;3488;42.616;23.350;2023-09-30T03:08:40;63666.63;;;16.19;64.02
6899;BME280;3488;42.616;23.350;2023-09-30T03:11:07;63678.47;;;16.21;62.77
6899;BME280;3488;42.616;23.350;2023-09-30T03:13:36;63680.03;;;16.23;62.74
6899;BME280;3488;42.616;23.350;2023-09-30T03:16:04;63681.63;;;16.27;63.47
6899;BME280;3488;42.616;23.350;2023-09-30T03:18:31;63676.44;;;16.24;64.18
6899;BME280;3488;42.616;23.350;2023-09-30T03:20:59;63678.00;;;16.26;66.10
6899;BME280;3488;42.616;23.350;2023-09-30T03:23:31;63677.97;;;16.23;63.96
6899;BME280;3488;42.616;23.350;2023-09-30T03:25:59;63675.38;;;16.20;62.68
6899;BME280;3488;42.616;23.350;2023-09-30T03:28:26;63672.84;;;16.23;62.66
6899;BME280;3488;42.616;23.350;2023-09-30T03:30:54;63678.50;;;16.24;62.96
6899;BME280;3488;42.616;23.350;2023-09-30T03:33:22;63676.44;;;16.24;64.07
6899;BME280;3488;42.616;23.350;2023-09-30T03:35:49;63675.94;;;16.24;64.79
6899;BME280;3488;42.616;23.350;2023-09-30T03:38:17;63680.06;;;16.25;64.94
6899;BME280;3488;42.616;23.350;2023-09-30T03:40:49;63681.13;;;16.29;62.99
6899;BME280;3488;42.616;23.350;2023-09-30T03:43:18;63685.28;;;16.33;64.30
6899;BME280;3488;42.616;23.350;2023-09-30T03:45:46;63685.25;;;16.30;64.15
6899;BME280;3488;42.616;23.350;2023-09-30T03:48:13;63681.59;;;16.24;64.31
6899;BME280;3488;42.616;23.350;2023-09-30T03:50:40;63681.13;;;16.29;64.58
6899;BME280;3488;42.616;23.350;2023-09-30T03:53:07;63684.16;;;16.24;64.71
6899;BME280;3488;42.616;23.350;2023-09-30T03:55:35;63673.31;;;16.21;65.49
6899;BME280;3488;42.616;23.350;2023-09-30T03:58:03;63658.81;;;16.12;66.14
6899;BME280;3488;42.616;23.350;2023-09-30T04:00:30;63660.31;;;16.08;65.67
6899;BME280;3488;42.616;23.350;2023-09-30T04:02:57;63658.75;;;16.07;65.27
6899;BME280;3488;42.616;23.350;2023-09-30T04:05:25;63657.28;;;16.10;65.32
6899;BME280;3488;42.616;23.350;2023-09-30T04:07:55;63644.25;;;15.95;70.10
6899;BME280;3488;42.616;23.350;2023-09-30T04:10:22;63641.09;;;15.90;70.05
6899;BME280;3488;42.616;23.350;2023-09-30T04:12:51;63642.59;;;15.86;69.36
6899;BME280;3488;42.616;23.350;2023-09-30T04:15:22;63631.25;;;15.83;69.31
6899;BME280;3488;42.616;23.350;2023-09-30T04:17:49;63633.22;;;15.77;69.87
6899;BME280;3488;42.616;23.350;2023-09-30T04:20:17;63613.50;;;15.61;71.68
6899;BME280;3488;42.616;23.350;2023-09-30T04:22:48;63603.13;;;15.53;73.58
6899;BME280;3488;42.616;23.350;2023-09-30T04:25:18;63600.06;;;15.53;72.88
6899;BME280;3488;42.616;23.350;2023-09-30T04:27:47;63586.53;;;15.40;72.66
6899;BME280;3488;42.616;23.350;2023-09-30T04:30:14;63581.81;;;15.33;72.97
6899;BME280;3488;42.616;23.350;2023-09-30T04:32:43;63575.59;;;15.27;73.58
6899;BME280;3488;42.616;23.350;2023-09-30T04:35:10;63568.84;;;15.23;74.92
6899;BME280;3488;42.616;23.350;2023-09-30T04:37:37;63563.13;;;15.15;73.51
6899;BME280;3488;42.616;23.350;2023-09-30T04:40:06;63562.03;;;15.11;73.52
6899;BME280;3488;42.616;23.350;2023-09-30T04:42:41;63556.88;;;15.08;73.24
6899;BME280;3488;42.616;23.350;2023-09-30T04:45:13;63555.78;;;15.05;72.05
6899;BME280;3488;42.616;23.350;2023-09-30T04:47:43;63557.41;;;15.09;71.12
6899;BME280;3488;42.616;23.350;2023-09-30T04:50:11;63558.94;;;15.11;71.41
6899;BME280;3488;42.616;23.350;2023-09-30T04:52:42;63564.59;;;15.11;71.25
6899;BME280;3488;42.616;23.350;2023-09-30T04:55:10;63558.94;;;15.11;71.54
6899;BME280;3488;42.616;23.350;2023-09-30T04:57:37;63553.75;;;15.05;74.11
6899;BME280;3488;42.616;23.350;2023-09-30T05:00:05;63557.84;;;15.04;74.51
6899;BME280;3488;42.616;23.350;2023-09-30T05:02:36;63550.66;;;15.02;74.65
6899;BME280;3488;42.616;23.350;2023-09-30T05:05:05;63555.31;;;15.07;74.93
6899;BME280;3488;42.616;23.350;2023-09-30T05:07:33;63564.63;;;15.14;76.06
6899;BME280;3488;42.616;23.350;2023-09-30T05:10:00;63564.63;;;15.14;76.88
6899;BME280;3488;42.616;23.350;2023-09-30T05:12:31;63573.47;;;15.22;75.61
6899;BME280;3488;42.616;23.350;2023-09-30T05:14:59;63557.94;;;15.12;78.16
6899;BME280;3488;42.616;23.350;2023-09-30T05:17:27;63560.00;;;15.12;78.68
6899;BME280;3488;42.616;23.350;2023-09-30T05:19:56;63568.25;;;15.17;79.05
6899;BME280;3488;42.616;23.350;2023-09-30T05:22:25;63577.09;;;15.26;79.20
6899;BME280;3488;42.616;23.350;2023-09-30T05:24:52;63584.91;;;15.33;79.97
6899;BME280;3488;42.616;23.350;2023-09-30T05:27:20;63584.97;;;15.38;79.80
6899;BME280;3488;42.616;23.350;2023-09-30T05:29:47;63602.59;;;15.50;78.23
6899;BME280;3488;42.616;23.350;2023-09-30T05:32:14;63614.06;;;15.64;80.67
6899;BME280;3488;42.616;23.350;2023-09-30T05:34:41;63621.34;;;15.71;81.43
6899;BME280;3488;42.616;23.350;2023-09-30T05:37:09;63630.69;;;15.80;81.87
6899;BME280;3488;42.616;23.350;2023-09-30T05:39:39;63646.22;;;15.90;81.05
6899;BME280;3488;42.616;23.350;2023-09-30T05:42:06;63648.91;;;16.00;79.80
6899;BME280;3488;42.616;23.350;2023-09-30T05:44:33;63668.13;;;16.16;77.52
6899;BME280;3488;42.616;23.350;2023-09-30T05:47:00;63656.19;;;16.07;78.69
6899;BME280;3488;42.616;23.350;2023-09-30T05:49:28;63681.06;;;16.24;80.07
6899;BME280;3488;42.616;23.350;2023-09-30T05:51:55;63684.75;;;16.30;79.69
6899;BME280;3488;42.616;23.350;2023-09-30T05:54:24;63686.88;;;16.34;76.94
6899;BME280;3488;42.616;23.350;2023-09-30T05:56:52;63696.25;;;16.46;73.81
6899;BME280;3488;42.616;23.350;2023-09-30T05:59:20;63709.81;;;16.61;73.19
6899;BME280;3488;42.616;23.350;2023-09-30T06:01:46;63708.72;;;16.55;72.52
6899;BME280;3488;42.616;23.350;2023-09-30T06:04:13;63713.91;;;16.60;73.89
6899;BME280;3488;42.616;23.350;2023-09-30T06:06:43;63732.09;;;16.75;73.80
6899;BME280;3488;42.616;23.350;2023-09-30T06:09:18;63740.47;;;16.86;69.92
6899;BME280;3488;42.616;23.350;2023-09-30T06:11:50;63742.03;;;16.87;68.41
6899;BME280;3488;42.616;23.350;2023-09-30T06:14:18;63757.09;;;16.99;66.72
6899;BME280;3488;42.616;23.350;2023-09-30T06:16:45;63773.19;;;17.12;66.47
6899;BME280;3488;42.616;23.350;2023-09-30T06:19:13;63774.84;;;17.21;63.54
6899;BME280;3488;42.616;23.350;2023-09-30T06:21:40;63790.94;;;17.34;61.45
6899;BME280;3488;42.616;23.350;2023-09-30T06:24:08;63793.53;;;17.37;59.65
6899;BME280;3488;42.616;23.350;2023-09-30T06:26:35;63803.97;;;17.47;59.93
6899;BME280;3488;42.616;23.350;2023-09-30T06:29:02;63801.41;;;17.47;64.70
6899;BME280;3488;42.616;23.350;2023-09-30T06:31:35;63811.25;;;17.54;60.60
6899;BME280;3488;42.616;23.350;2023-09-30T06:34:07;63800.38;;;17.46;58.03
6899;BME280;3488;42.616;23.350;2023-09-30T06:36:36;63822.13;;;17.60;62.98
6899;BME280;3488;42.616;23.350;2023-09-30T06:39:04;63831.00;;;17.71;62.82
6899;BME280;3488;42.616;23.350;2023-09-30T06:41:31;63823.19;;;17.61;59.06
6899;BME280;3488;42.616;23.350;2023-09-30T06:43:58;63808.09;;;17.49;59.07
6899;BME280;3488;42.616;23.350;2023-09-30T06:46:26;63812.81;;;17.56;58.07
6899;BME280;3488;42.616;23.350;2023-09-30T06:48:54;63819.63;;;17.65;58.21
6899;BME280;3488;42.616;23.350;2023-09-30T06:51:21;63837.75;;;17.75;59.26
6899;BME280;3488;42.616;23.350;2023-09-30T06:53:49;63837.28;;;17.79;57.90
6899;BME280;3488;42.616;23.350;2023-09-30T06:56:17;63842.47;;;17.82;57.88
6899;BME280;3488;42.616;23.350;2023-09-30T06:58:44;63848.22;;;17.87;58.16
6899;BME280;3488;42.616;23.350;2023-09-30T07:01:15;63863.81;;;18.02;58.10
6899;BME280;3488;42.616;23.350;2023-09-30T07:03:43;63883.09;;;18.21;58.45
6899;BME280;3488;42.616;23.350;2023-09-30T07:06:21;63889.91;;;18.30;58.21
6899;BME280;3488;42.616;23.350;2023-09-30T07:08:50;63899.28;;;18.39;58.20
6899;BME280;3488;42.616;23.350;2023-09-30T07:11:26;63905.53;;;18.45;56.77
6899;BME280;3488;42.616;23.350;2023-09-30T07:13:55;63929.00;;;18.68;56.15
6899;BME280;3488;42.616;23.350;2023-09-30T07:16:23;63934.19;;;18.70;54.92
6899;BME280;3488;42.616;23.350;2023-09-30T07:18:50;63937.84;;;18.76;55.44
6899;BME280;3488;42.616;23.350;2023-09-30T07:21:18;63941.50;;;18.80;54.23
6899;BME280;3488;42.616;23.350;2023-09-30T07:23:50;63941.00;;;18.82;54.38
6899;BME280;3488;42.616;23.350;2023-09-30T07:26:18;63962.88;;;19.00;53.93
6899;BME280;3488;42.616;23.350;2023-09-30T07:28:50;63986.25;;;19.15;53.63
6899;BME280;3488;42.616;23.350;2023-09-30T07:31:19;63996.75;;;19.30;50.88
6899;BME280;3488;42.616;23.350;2023-09-30T07:33:48;64006.16;;;19.42;51.04
6899;BME280;3488;42.616;23.350;2023-09-30T07:36:15;64014.97;;;19.45;51.32
6899;BME280;3488;42.616;23.350;2023-09-30T07:38:45;64032.72;;;19.63;51.18
6899;BME280;3488;42.616;23.350;2023-09-30T07:41:12;64037.47;;;19.75;49.78
6899;BME280;3488;42.616;23.350;2023-09-30T07:43:39;64043.19;;;19.78;49.90
6899;BME280;3488;42.616;23.350;2023-09-30T07:46:06;64068.16;;;19.97;48.20
6899;BME280;3488;42.616;23.350;2023-09-30T07:48:35;64066.16;;;20.00;46.98
6899;BME280;3488;42.616;23.350;2023-09-30T07:51:02;64072.94;;;20.06;46.29
6899;BME280;3488;42.616;23.350;2023-09-30T07:53:31;64091.72;;;20.22;47.00
6899;BME280;3488;42.616;23.350;2023-09-30T07:55:59;64105.25;;;20.35;48.31
6899;BME280;3488;42.616;23.350;2023-09-30T07:58:27;64133.97;;;20.60;48.08
6899;BME280;3488;42.616;23.350;2023-09-30T08:00:54;64136.59;;;20.65;45.90
6899;BME280;3488;42.616;23.350;2023-09-30T08:03:21;64138.69;;;20.67;45.15
6899;BME280;3488;42.616;23.350;2023-09-30T08:05:48;64155.38;;;20.83;44.12
6899;BME280;3488;42.616;23.350;2023-09-30T08:08:16;64156.97;;;20.87;41.90
6899;BME280;3488;42.616;23.350;2023-09-30T08:10:43;64159.53;;;20.85;42.04
6899;BME280;3488;42.616;23.350;2023-09-30T08:13:12;64157.50;;;20.90;41.95
6899;BME280;3488;42.616;23.350;2023-09-30T08:15:39;64166.91;;;20.99;41.96
6899;BME280;3488;42.616;23.350;2023-09-30T08:18:06;64193.50;;;21.20;41.25
6899;BME280;3488;42.616;23.350;2023-09-30T08:20:33;64216.47;;;21.42;43.23
6899;BME280;3488;42.616;23.350;2023-09-30T08:23:02;64234.22;;;21.59;41.34
6899;BME280;3488;42.616;23.350;2023-09-30T08:25:29;64245.22;;;21.69;40.31
6899;BME280;3488;42.616;23.350;2023-09-30T08:27:56;64255.69;;;21.82;40.01
6899;BME280;3488;42.616;23.350;2023-09-30T08:30:26;64265.66;;;21.94;40.73
6899;BME280;3488;42.616;23.350;2023-09-30T08:32:57;64295.91;;;22.16;40.05
6899;BME280;3488;42.616;23.350;2023-09-30T08:35:24;64298.50;;;22.18;39.26
6899;BME280;3488;42.616;23.350;2023-09-30T08:37:51;64280.78;;;22.06;38.08
6899;BME280;3488;42.616;23.350;2023-09-30T08:40:20;64292.25;;;22.15;38.95
6899;BME280;3488;42.616;23.350;2023-09-30T08:42:48;64277.13;;;22.03;38.88
6899;BME280;3488;42.616;23.350;2023-09-30T08:45:27;64263.00;;;21.89;38.86
6899;BME280;3488;42.616;23.350;2023-09-30T08:47:56;64287.56;;;22.10;38.68
6899;BME280;3488;42.616;23.350;2023-09-30T08:50:29;64297.44;;;22.15;39.24
6899;BME280;3488;42.616;23.350;2023-09-30T08:52:58;64307.94;;;22.32;38.68
6899;BME280;3488;42.616;23.350;2023-09-30T08:55:29;64336.69;;;22.57;37.58
6899;BME280;3488;42.616;23.350;2023-09-30T08:58:01;64351.34;;;22.69;37.55
6899;BME280;3488;42.616;23.350;2023-09-30T09:00:50;64361.84;;;22.86;40.23
6899;BME280;3488;42.616;23.350;2023-09-30T09:05:53;64392.63;;;23.09;37.07
6899;BME280;3488;42.616;23.350;2023-09-30T09:08:21;64391.06;;;23.07;36.08
6899;BME280;3488;42.616;23.350;2023-09-30T09:13:21;64377.47;;;22.94;37.34
6899;BME280;3488;42.616;23.350;2023-09-30T09:16:05;64382.69;;;22.99;37.80
6899;BME280;3488;42.616;23.350;2023-09-30T09:18:34;64376.44;;;22.96;36.21
6899;BME280;3488;42.616;23.350;2023-09-30T09:21:10;64352.41;;;22.75;36.88
6899;BME280;3488;42.616;23.350;2023-09-30T09:23:41;64357.06;;;22.74;37.49
6899;BME280;3488;42.616;23.350;2023-09-30T09:26:10;64368.06;;;22.87;36.88
6899;BME280;3488;42.616;23.350;2023-09-30T09:28:38;64384.81;;;23.04;37.12
6899;BME280;3488;42.616;23.350;2023-09-30T09:31:26;64392.13;;;23.13;37.77
6899;BME280;3488;42.616;23.350;2023-09-30T09:33:53;64397.34;;;23.13;37.01
6899;BME280;3488;42.616;23.350;2023-09-30T09:36:21;64359.19;;;22.81;36.79
6899;BME280;3488;42.616;23.350;2023-09-30T09:38:49;64370.69;;;22.90;37.94
6899;BME280;3488;42.616;23.350;2023-09-30T09:41:19;64398.94;;;23.17;38.88
6899;BME280;3488;42.616;23.350;2023-09-30T09:43:49;64425.09;;;23.40;36.56
6899;BME280;3488;42.616;23.350;2023-09-30T09:46:17;64419.84;;;23.35;36.33
6899;BME280;3488;42.616;23.350;2023-09-30T09:48:46;64410.97;;;23.29;36.18
6899;BME280;3488;42.616;23.350;2023-09-30T09:51:14;64427.16;;;23.42;36.76
6899;BME280;3488;42.616;23.350;2023-09-30T09:53:42;64418.31;;;23.41;36.16
6899;BME280;3488;42.616;23.350;2023-09-30T09:56:10;64389.53;;;23.13;35.08
6899;BME280;3488;42.616;23.350;2023-09-30T09:58:40;64394.22;;;23.13;35.41
6899;BME280;3488;42.616;23.350;2023-09-30T10:01:09;64373.28;;;22.90;35.03
6899;BME280;3488;42.616;23.350;2023-09-30T10:03:38;64369.09;;;22.88;35.56
6899;BME280;3488;42.616;23.350;2023-09-30T10:06:07;64360.22;;;22.80;35.96
6899;BME280;3488;42.616;23.350;2023-09-30T10:08:38;64369.06;;;22.83;36.45
6899;BME280;3488;42.616;23.350;2023-09-30T10:11:08;64378.03;;;23.00;36.59
6899;BME280;3488;42.616;23.350;2023-09-30T10:13:51;64387.44;;;23.11;35.92
6899;BME280;3488;42.616;23.350;2023-09-30T10:16:47;64403.66;;;23.27;34.73
6899;BME280;3488;42.616;23.350;2023-09-30T10:19:20;64419.84;;;23.37;34.17
6899;BME280;3488;42.616;23.350;2023-09-30T10:22:21;64421.44;;;23.39;34.95
6899;BME280;3488;42.616;23.350;2023-09-30T10:24:51;64407.28;;;23.25;35.48
6899;BME280;3488;42.616;23.350;2023-09-30T10:27:45;64394.75;;;23.16;35.71
6899;BME280;3488;42.616;23.350;2023-09-30T10:30:13;64412.00;;;23.30;37.08
6899;BME280;3488;42.616;23.350;2023-09-30T10:33:10;64436.06;;;23.53;35.12
6899;BME280;3488;42.616;23.350;2023-09-30T10:35:52;64426.69;;;23.46;34.56
6899;BME280;3488;42.616;23.350;2023-09-30T10:38:40;64439.75;;;23.59;34.01
6899;BME280;3488;42.616;23.350;2023-09-30T10:41:07;64403.09;;;23.19;34.19
6899;BME280;3488;42.616;23.350;2023-09-30T10:43:36;64403.63;;;23.22;33.99
6899;BME280;3488;42.616;23.350;2023-09-30T10:46:35;64427.19;;;23.44;34.67
6899;BME280;3488;42.616;23.350;2023-09-30T10:49:30;64440.81;;;23.62;34.84
6899;BME280;3488;42.616;23.350;2023-09-30T10:52:01;64449.16;;;23.65;34.34
6899;BME280;3488;42.616;23.350;2023-09-30T10:54:32;64462.75;;;23.76;32.68
6899;BME280;3488;42.616;23.350;2023-09-30T10:57:00;64442.91;;;23.62;32.40
6899;BME280;3488;42.616;23.350;2023-09-30T10:59:29;64415.72;;;23.38;33.46
6899;BME280;3488;42.616;23.350;2023-09-30T11:01:57;64411.00;;;23.31;33.83
6899;BME280;3488;42.616;23.350;2023-09-30T11:04:25;64401.03;;;23.19;33.81
6899;BME280;3488;42.616;23.350;2023-09-30T11:06:55;64366.50;;;22.86;33.94
6899;BME280;3488;42.616;23.350;2023-09-30T11:09:23;64333.03;;;22.54;33.57
6899;BME280;3488;42.616;23.350;2023-09-30T11:11:52;64346.63;;;22.64;34.51
6899;BME280;3488;42.616;23.350;2023-09-30T11:14:21;64378.00;;;22.97;35.47
6899;BME280;3488;42.616;23.350;2023-09-30T11:16:50;64394.25;;;23.20;34.19
6899;BME280;3488;42.616;23.350;2023-09-30T11:19:18;64402.06;;;23.20;32.92
6899;BME280;3488;42.616;23.350;2023-09-30T11:21:49;64411.50;;;23.32;33.07
6899;BME280;3488;42.616;23.350;2023-09-30T11:24:17;64425.63;;;23.43;33.36
6899;BME280;3488;42.616;23.350;2023-09-30T11:26:47;64410.47;;;23.31;32.83
6899;BME280;3488;42.616;23.350;2023-09-30T11:29:17;64394.19;;;23.10;33.36
6899;BME280;3488;42.616;23.350;2023-09-30T11:31:46;64370.69;;;22.92;33.42
6899;BME280;3488;42.616;23.350;2023-09-30T11:34:15;64377.50;;;22.97;33.52
6899;BME280;3488;42.616;23.350;2023-09-30T11:36:48;64403.09;;;23.21;33.45
6899;BME280;3488;42.616;23.350;2023-09-30T11:39:21;64409.44;;;23.32;32.70
6899;BME280;3488;42.616;23.350;2023-09-30T11:41:50;64440.25;;;23.54;33.72
6899;BME280;3488;42.616;23.350;2023-09-30T11:44:19;64426.69;;;23.46;32.51
6899;BME280;3488;42.616;23.350;2023-09-30T11:46:56;64421.94;;;23.37;32.71
6899;BME280;3488;42.616;23.350;2023-09-30T11:49:30;64422.50;;;23.42;32.91
6899;BME280;3488;42.616;23.350;2023-09-30T11:51:58;64427.72;;;23.47;32.81
6899;BME280;3488;42.616;23.350;2023-09-30T11:54:31;64430.81;;;23.45;33.47
6899;BME280;3488;42.616;23.350;2023-09-30T11:56:59;64436.59;;;23.51;33.32
6899;BME280;3488;42.616;23.350;2023-09-30T11:59:27;64444.97;;;23.61;32.72
6899;BME280;3488;42.616;23.350;2023-09-30T12:01:54;64460.66;;;23.76;32.73
6899;BME280;3488;42.616;23.350;2023-09-30T12:04:23;64463.28;;;23.79;32.59
6899;BME280;3488;42.616;23.350;2023-09-30T12:06:51;64448.63;;;23.65;33.64
6899;BME280;3488;42.616;23.350;2023-09-30T12:09:18;64420.41;;;23.40;33.40
6899;BME280;3488;42.616;23.350;2023-09-30T12:11:53;64430.84;;;23.48;33.91
6899;BME280;3488;42.616;23.350;2023-09-30T12:14:23;64438.66;;;23.50;34.40
6899;BME280;3488;42.616;23.350;2023-09-30T12:16:52;64436.59;;;23.53;35.18
6899;BME280;3488;42.616;23.350;2023-09-30T12:19:20;64458.53;;;23.69;35.89
6899;BME280;3488;42.616;23.350;2023-09-30T12:21:47;64473.22;;;23.88;35.25
6899;BME280;3488;42.616;23.350;2023-09-30T12:24:15;64493.13;;;24.05;34.11
6899;BME280;3488;42.616;23.350;2023-09-30T12:26:44;64515.09;;;24.24;34.88
6899;BME280;3488;42.616;23.350;2023-09-30T12:29:14;64528.19;;;24.41;34.47
6899;BME280;3488;42.616;23.350;2023-09-30T12:31:49;64529.25;;;24.45;32.31
6899;BME280;3488;42.616;23.350;2023-09-30T12:34:18;64495.25;;;24.12;32.56
6899;BME280;3488;42.616;23.350;2023-09-30T12:36:45;64472.72;;;23.88;33.20
6899;BME280;3488;42.616;23.350;2023-09-30T12:39:13;64471.69;;;23.89;33.22
6899;BME280;3488;42.616;23.350;2023-09-30T12:41:43;64477.41;;;23.92;33.35
6899;BME280;3488;42.616;23.350;2023-09-30T12:44:10;64460.13;;;23.73;33.83
6899;BME280;3488;42.616;23.350;2023-09-30T12:46:38;64472.69;;;23.85;33.99
6899;BME280;3488;42.616;23.350;2023-09-30T12:49:06;64477.41;;;23.92;34.07
6899;BME280;3488;42.616;23.350;2023-09-30T12:51:35;64482.69;;;24.00;33.99
6899;BME280;3488;42.616;23.350;2023-09-30T12:54:03;64514.06;;;24.28;33.03
6899;BME280;3488;42.616;23.350;2023-09-30T12:56:30;64509.84;;;24.19;32.91
6899;BME280;3488;42.616;23.350;2023-09-30T12:58:57;64524.53;;;24.38;32.75
6899;BME280;3488;42.616;23.350;2023-09-30T13:01:25;64530.78;;;24.36;32.41
6899;BME280;3488;42.616;23.350;2023-09-30T13:03:54;64528.19;;;24.41;32.59
6899;BME280;3488;42.616;23.350;2023-09-30T13:06:21;64507.81;;;24.27;32.24
6899;BME280;3488;42.616;23.350;2023-09-30T13:08:50;64506.75;;;24.23;32.19
6899;BME280;3488;42.616;23.350;2023-09-30T13:11:19;64490.50;;;24.02;32.07
6899;BME280;3488;42.616;23.350;2023-09-30T13:13:47;64471.16;;;23.91;32.59
6899;BME280;3488;42.616;23.350;2023-09-30T13:16:14;64496.25;;;24.06;32.80
6899;BME280;3488;42.616;23.350;2023-09-30T13:18:46;64527.16;;;24.43;34.64
6899;BME280;3488;42.616;23.350;2023-09-30T13:21:17;64539.22;;;24.57;32.01
6899;BME280;3488;42.616;23.350;2023-09-30T13:23:45;64559.13;;;24.71;34.63
6899;BME280;3488;42.616;23.350;2023-09-30T13:26:14;64573.78;;;24.87;32.15